Time;durP1;ratioP1;P1;durP2;ratioP2;P2;SDS_P1;SDS_P2;PMS_P1;PMS_P2;Temp;Humidity;BMP_temperature;BMP_pressure;BME280_temperature;BME280_humidity;BME280_pressure;Samples;Min_cycle;Max_cycle;Signal;HPM_P1;HPM_P2
2023/05/15 00:01:36;;;;;;;5.03;4.00;;;;;;;;;;5046219;28;20048;-67
2023/05/15 00:04:03;;;;;;;4.63;4.22;;;;;;;;;;5046565;28;20059;-66
2023/05/15 00:06:29;;;;;;;4.85;4.32;;;;;;;;;;5028705;28;20045;-66
2023/05/15 00:08:55;;;;;;;5.75;4.60;;;;;;;;;;5044061;28;20037;-67
2023/05/15 00:11:22;;;;;;;6.55;4.60;;;;;;;;;;5046430;28;20041;-67
2023/05/15 00:13:49;;;;;;;5.47;4.97;;;;;;;;;;5045381;28;20080;-67
2023/05/15 00:16:15;;;;;;;6.38;5.25;;;;;;;;;;5046241;28;20391;-67
2023/05/15 00:18:41;;;;;;;7.07;6.30;;;;;;;;;;5046970;28;20049;-67
2023/05/15 00:21:07;;;;;;;7.15;6.45;;;;;;;;;;5045887;28;20044;-67
2023/05/15 00:23:33;;;;;;;5.38;4.85;;;;;;;;;;5046057;28;20785;-67
2023/05/15 00:25:59;;;;;;;4.82;4.32;;;;;;;;;;5027909;28;20119;-67
2023/05/15 00:28:25;;;;;;;4.45;4.05;;;;;;;;;;5028540;28;20710;-66
2023/05/15 00:30:51;;;;;;;4.07;3.78;;;;;;;;;;5044742;28;20128;-67
2023/05/15 00:33:17;;;;;;;4.07;3.75;;;;;;;;;;5028165;28;20044;-67
2023/05/15 00:35:43;;;;;;;3.15;2.85;;;;;;;;;;5029316;28;20079;-67
2023/05/15 00:38:09;;;;;;;5.35;4.57;;;;;;;;;;5045092;28;20041;-67
2023/05/15 00:40:36;;;;;;;5.53;5.00;;;;;;;;;;5027919;28;20056;-67
2023/05/15 00:43:02;;;;;;;8.05;6.07;;;;;;;;;;5027362;28;20053;-67
2023/05/15 00:45:28;;;;;;;7.05;6.35;;;;;;;;;;5027386;28;20120;-67
2023/05/15 00:47:55;;;;;;;6.60;6.00;;;;;;;;;;5025201;28;20084;-67
2023/05/15 00:50:21;;;;;;;6.60;5.85;;;;;;;;;;5044819;28;20079;-67
2023/05/15 00:52:48;;;;;;;6.28;5.63;;;;;;;;;;5045414;28;20056;-66
2023/05/15 00:55:14;;;;;;;6.47;5.65;;;;;;;;;;5028045;28;20087;-67
2023/05/15 00:57:41;;;;;;;5.47;4.95;;;;;;;;;;5045310;28;20535;-67
2023/05/15 01:00:09;;;;;;;5.03;4.53;;;;;;;;;;5027022;28;20506;-67
2023/05/15 01:02:36;;;;;;;4.80;4.40;;;;;;;;;;5027609;28;20335;-67
2023/05/15 01:05:02;;;;;;;5.22;4.78;;;;;;;;;;5044244;28;20579;-67
2023/05/15 01:07:31;;;;;;;4.03;3.72;;;;;;;;;;5027541;28;20049;-67
2023/05/15 01:09:58;;;;;;;4.35;3.95;;;;;;;;;;5026504;28;20090;-67
2023/05/15 01:12:25;;;;;;;4.88;4.45;;;;;;;;;;5026333;28;20442;-67
2023/05/15 01:14:51;;;;;;;6.88;6.20;;;;;;;;;;5026669;28;20084;-67
2023/05/15 01:17:17;;;;;;;7.30;6.60;;;;;;;;;;5045258;28;20124;-67
2023/05/15 01:19:44;;;;;;;6.38;5.35;;;;;;;;;;5044150;28;20127;-67
2023/05/15 01:22:29;;;;;;;5.22;4.63;;;;;;;;;;5046105;28;20136;-67
2023/05/15 01:25:06;;;;;;;5.03;4.57;;;;;;;;;;5042738;28;20083;-67
2023/05/15 01:27:41;;;;;;;4.80;4.40;;;;;;;;;;5044812;28;20119;-67
2023/05/15 01:30:26;;;;;;;4.60;4.20;;;;;;;;;;5026597;28;20052;-67
2023/05/15 01:33:11;;;;;;;6.05;5.45;;;;;;;;;;5023621;28;20056;-67
2023/05/15 01:35:44;;;;;;;4.80;4.35;;;;;;;;;;5045037;28;20041;-67
2023/05/15 01:38:31;;;;;;;4.50;4.10;;;;;;;;;;5043635;28;20043;-67
2023/05/15 01:41:02;;;;;;;4.60;4.20;;;;;;;;;;5012180;28;20144;-67
2023/05/15 01:43:29;;;;;;;3.88;3.50;;;;;;;;;;5044695;28;20123;-67
2023/05/15 01:45:56;;;;;;;4.15;3.78;;;;;;;;;;5025999;28;20094;-67
2023/05/15 01:48:22;;;;;;;3.63;3.33;;;;;;;;;;5026598;28;20053;-67
2023/05/15 01:50:49;;;;;;;4.57;4.10;;;;;;;;;;5044027;28;20053;-67
2023/05/15 01:53:16;;;;;;;4.43;3.78;;;;;;;;;;5047205;28;20041;-67
2023/05/15 01:55:43;;;;;;;4.68;4.28;;;;;;;;;;5026697;28;20052;-67
2023/05/15 01:58:09;;;;;;;4.25;3.78;;;;;;;;;;5026216;28;20091;-67
2023/05/15 02:00:36;;;;;;;5.32;4.82;;;;;;;;;;5025297;28;20083;-67
2023/05/15 02:03:02;;;;;;;5.28;4.72;;;;;;;;;;5025770;28;20159;-67
2023/05/15 02:05:29;;;;;;;4.70;4.10;;;;;;;;;;5026547;28;20040;-67
2023/05/15 02:07:55;;;;;;;5.03;4.53;;;;;;;;;;5025598;28;20656;-67
2023/05/15 02:10:21;;;;;;;3.75;3.40;;;;;;;;;;5044356;28;20068;-67
2023/05/15 02:12:49;;;;;;;5.00;4.57;;;;;;;;;;5025560;28;20048;-67
2023/05/15 02:15:17;;;;;;;4.57;4.18;;;;;;;;;;5043124;28;20116;-66
2023/05/15 02:17:43;;;;;;;5.82;5.03;;;;;;;;;;5043693;28;20068;-66
2023/05/15 02:20:09;;;;;;;6.60;5.90;;;;;;;;;;5025466;28;20037;-67
2023/05/15 02:22:35;;;;;;;7.88;6.50;;;;;;;;;;5025050;28;20316;-66
2023/05/15 02:25:01;;;;;;;8.05;7.22;;;;;;;;;;5025419;28;20059;-67
2023/05/15 02:27:28;;;;;;;9.80;8.60;;;;;;;;;;5042816;28;20120;-67
2023/05/15 02:30:06;;;;;;;7.80;7.10;;;;;;;;;;5042718;28;20450;-67
2023/05/15 02:32:55;;;;;;;8.93;7.03;;;;;;;;;;5025613;28;20098;-66
2023/05/15 02:35:29;;;;;;;8.20;7.20;;;;;;;;;;5042996;28;20037;-67
2023/05/15 02:37:56;;;;;;;6.00;5.40;;;;;;;;;;5024697;28;20045;-66
2023/05/15 02:40:24;;;;;;;6.32;5.72;;;;;;;;;;5025320;28;20041;-66
2023/05/15 02:42:52;;;;;;;6.28;5.30;;;;;;;;;;5025455;28;20574;-66
2023/05/15 02:45:18;;;;;;;5.85;5.30;;;;;;;;;;5025516;28;20037;-67
2023/05/15 02:47:45;;;;;;;8.40;6.93;;;;;;;;;;5043993;28;20124;-67
2023/05/15 02:50:11;;;;;;;6.78;6.07;;;;;;;;;;5041914;28;20056;-66
2023/05/15 02:52:37;;;;;;;6.57;5.97;;;;;;;;;;5025488;28;20099;-67
2023/05/15 02:55:03;;;;;;;5.57;4.97;;;;;;;;;;5025304;28;20045;-66
2023/05/15 02:57:29;;;;;;;5.05;4.55;;;;;;;;;;5042867;28;20047;-67
2023/05/15 02:59:56;;;;;;;4.97;4.57;;;;;;;;;;5025248;28;20132;-67
2023/05/15 03:02:22;;;;;;;5.32;4.82;;;;;;;;;;5025365;28;20131;-66
2023/05/15 03:04:48;;;;;;;4.40;4.00;;;;;;;;;;5024732;28;20065;-66
2023/05/15 03:07:14;;;;;;;4.80;4.40;;;;;;;;;;5043120;28;20116;-66
2023/05/15 03:09:40;;;;;;;6.07;5.47;;;;;;;;;;5043580;28;20152;-66
2023/05/15 03:12:07;;;;;;;6.00;5.40;;;;;;;;;;5042806;28;20529;-67
2023/05/15 03:14:33;;;;;;;5.78;5.00;;;;;;;;;;5029259;28;20415;-67
2023/05/15 03:17:00;;;;;;;4.88;4.47;;;;;;;;;;5047187;28;20458;-67
2023/05/15 03:19:26;;;;;;;5.68;5.07;;;;;;;;;;5046852;28;20048;-67
2023/05/15 03:21:52;;;;;;;5.63;5.03;;;;;;;;;;5028899;28;20033;-67
2023/05/15 03:24:18;;;;;;;4.32;3.95;;;;;;;;;;5047056;28;20041;-66
2023/05/15 03:26:44;;;;;;;3.55;3.25;;;;;;;;;;5047483;28;20041;-66
2023/05/15 03:29:10;;;;;;;3.85;3.55;;;;;;;;;;5029175;28;20503;-67
2023/05/15 03:31:36;;;;;;;3.10;2.80;;;;;;;;;;5047442;28;20041;-67
2023/05/15 03:34:02;;;;;;;3.35;3.05;;;;;;;;;;5027221;28;20769;-67
2023/05/15 03:36:28;;;;;;;3.38;3.08;;;;;;;;;;5028030;28;20041;-67
2023/05/15 03:38:54;;;;;;;3.20;2.90;;;;;;;;;;5028461;28;20080;-67
2023/05/15 03:41:21;;;;;;;2.88;2.67;;;;;;;;;;5028712;28;20091;-66
2023/05/15 03:43:47;;;;;;;3.67;3.13;;;;;;;;;;5046784;28;20094;-67
2023/05/15 03:46:13;;;;;;;3.40;3.13;;;;;;;;;;5047100;28;20454;-66
2023/05/15 03:48:39;;;;;;;3.20;3.00;;;;;;;;;;5046984;28;20067;-67
2023/05/15 03:51:05;;;;;;;2.92;2.72;;;;;;;;;;5046462;28;20753;-67
2023/05/15 03:53:31;;;;;;;2.75;2.55;;;;;;;;;;5029054;28;20076;-67
2023/05/15 03:55:57;;;;;;;3.13;2.92;;;;;;;;;;5028189;28;20120;-67
2023/05/15 03:58:23;;;;;;;3.38;3.17;;;;;;;;;;5028817;28;20049;-67
2023/05/15 04:00:49;;;;;;;2.80;2.60;;;;;;;;;;5028166;28;20071;-67
2023/05/15 04:03:15;;;;;;;2.88;2.67;;;;;;;;;;5028309;28;20041;-67
2023/05/15 04:05:41;;;;;;;2.97;2.78;;;;;;;;;;5028491;28;20071;-66
2023/05/15 04:08:08;;;;;;;3.95;2.95;;;;;;;;;;5027458;28;20091;-67
2023/05/15 04:10:34;;;;;;;3.00;2.80;;;;;;;;;;5045294;28;20490;-67
2023/05/15 04:13:00;;;;;;;3.05;2.85;;;;;;;;;;5027794;28;20088;-66
2023/05/15 04:15:27;;;;;;;2.88;2.67;;;;;;;;;;5045872;28;20552;-67
2023/05/15 04:17:53;;;;;;;3.45;3.15;;;;;;;;;;5027873;28;20053;-66
2023/05/15 04:20:23;;;;;;;3.15;2.75;;;;;;;;;;5026270;28;20079;-66
2023/05/15 04:22:49;;;;;;;3.63;3.38;;;;;;;;;;5027154;28;20082;-67
2023/05/15 04:25:15;;;;;;;2.85;2.65;;;;;;;;;;5027288;28;20052;-66
2023/05/15 04:27:42;;;;;;;3.40;3.20;;;;;;;;;;5046902;28;20041;-66
2023/05/15 04:30:08;;;;;;;3.65;3.35;;;;;;;;;;5027293;28;21487;-67
2023/05/15 04:32:35;;;;;;;3.25;3.05;;;;;;;;;;5045930;28;20406;-67
2023/05/15 04:35:01;;;;;;;3.08;2.88;;;;;;;;;;5045350;28;20153;-67
2023/05/15 04:37:28;;;;;;;3.08;2.88;;;;;;;;;;5045458;28;20040;-67
2023/05/15 04:39:54;;;;;;;3.08;2.88;;;;;;;;;;5027564;28;20091;-67
2023/05/15 04:42:20;;;;;;;2.72;2.53;;;;;;;;;;5027609;28;20049;-66
2023/05/15 04:44:46;;;;;;;2.30;2.20;;;;;;;;;;5045672;28;20053;-67
2023/05/15 04:47:12;;;;;;;2.88;2.67;;;;;;;;;;5027253;28;20041;-67
2023/05/15 04:49:39;;;;;;;2.10;2.00;;;;;;;;;;5026834;28;20091;-66
2023/05/15 04:52:05;;;;;;;2.03;1.92;;;;;;;;;;5045124;28;20053;-66
2023/05/15 04:54:31;;;;;;;3.28;3.03;;;;;;;;;;5027674;28;20045;-67
2023/05/15 04:56:57;;;;;;;2.28;2.17;;;;;;;;;;5044717;28;20387;-67
2023/05/15 04:59:27;;;;;;;1.95;1.85;;;;;;;;;;5045489;28;20045;-67
2023/05/15 05:01:53;;;;;;;2.75;2.55;;;;;;;;;;5042453;28;20049;-67
2023/05/15 05:04:19;;;;;;;3.03;2.83;;;;;;;;;;5044668;28;20044;-67
2023/05/15 05:06:46;;;;;;;3.72;3.42;;;;;;;;;;5045258;28;20071;-67
2023/05/15 05:09:12;;;;;;;3.42;3.13;;;;;;;;;;5045451;28;20109;-67
2023/05/15 05:11:42;;;;;;;3.20;3.00;;;;;;;;;;5026680;28;20736;-67
2023/05/15 05:14:08;;;;;;;3.00;2.80;;;;;;;;;;5027068;28;20064;-67
2023/05/15 05:16:35;;;;;;;2.38;2.22;;;;;;;;;;5045148;28;20383;-67
2023/05/15 05:19:01;;;;;;;3.40;3.20;;;;;;;;;;5026465;28;20057;-66
2023/05/15 05:21:27;;;;;;;3.75;3.45;;;;;;;;;;5028910;28;20040;-66
2023/05/15 05:23:53;;;;;;;3.00;2.80;;;;;;;;;;5043645;28;20051;-67
2023/05/15 05:26:19;;;;;;;2.10;2.00;;;;;;;;;;5028711;28;20095;-66
2023/05/15 05:28:45;;;;;;;2.38;2.17;;;;;;;;;;5045311;28;20048;-67
2023/05/15 05:31:11;;;;;;;2.05;1.85;;;;;;;;;;5026854;28;20439;-67
2023/05/15 05:33:37;;;;;;;2.08;1.98;;;;;;;;;;5044503;28;20037;-66
2023/05/15 05:36:04;;;;;;;2.53;2.42;;;;;;;;;;5043403;28;20601;-67
2023/05/15 05:38:31;;;;;;;2.60;2.40;;;;;;;;;;5027432;28;20048;-67
2023/05/15 05:40:57;;;;;;;2.45;2.20;;;;;;;;;;5026405;28;20049;-67
2023/05/15 05:43:25;;;;;;;2.00;1.90;;;;;;;;;;5026804;28;20047;-67
2023/05/15 05:45:51;;;;;;;2.35;2.22;;;;;;;;;;5022572;28;20252;-67
2023/05/15 05:48:17;;;;;;;2.03;1.92;;;;;;;;;;5043897;28;20056;-67
2023/05/15 05:50:43;;;;;;;2.58;2.38;;;;;;;;;;5027144;28;20045;-67
2023/05/15 05:53:09;;;;;;;3.40;3.17;;;;;;;;;;5043432;28;20476;-67
2023/05/15 05:55:35;;;;;;;3.90;3.60;;;;;;;;;;5044520;28;20045;-67
2023/05/15 05:58:02;;;;;;;2.95;2.75;;;;;;;;;;5024590;28;20131;-67
2023/05/15 06:00:28;;;;;;;2.53;2.33;;;;;;;;;;5024529;28;20403;-66
2023/05/15 06:02:56;;;;;;;2.38;2.22;;;;;;;;;;5025948;28;20037;-67
2023/05/15 06:05:22;;;;;;;1.85;1.75;;;;;;;;;;5026478;28;20064;-67
2023/05/15 06:07:48;;;;;;;1.70;1.60;;;;;;;;;;5024475;28;20053;-67
2023/05/15 06:10:14;;;;;;;1.65;1.55;;;;;;;;;;5044792;28;20075;-67
2023/05/15 06:12:41;;;;;;;1.73;1.63;;;;;;;;;;5043571;28;20450;-67
2023/05/15 06:15:07;;;;;;;2.53;1.65;;;;;;;;;;5043286;28;20045;-67
2023/05/15 06:17:33;;;;;;;1.70;1.60;;;;;;;;;;5044162;28;20581;-67
2023/05/15 06:19:59;;;;;;;1.83;1.73;;;;;;;;;;5025736;28;20742;-67
2023/05/15 06:22:25;;;;;;;1.80;1.70;;;;;;;;;;5025301;28;20102;-67
2023/05/15 06:24:51;;;;;;;1.80;1.70;;;;;;;;;;5043389;28;20056;-67
2023/05/15 06:27:17;;;;;;;1.88;1.77;;;;;;;;;;5025826;28;20037;-67
2023/05/15 06:29:43;;;;;;;1.63;1.52;;;;;;;;;;5025807;28;20085;-67
2023/05/15 06:32:09;;;;;;;2.33;2.22;;;;;;;;;;5043124;28;20091;-67
2023/05/15 06:34:35;;;;;;;1.85;1.70;;;;;;;;;;5043640;28;20067;-67
2023/05/15 06:37:01;;;;;;;1.63;1.52;;;;;;;;;;5024926;28;20049;-67
2023/05/15 06:39:27;;;;;;;1.70;1.60;;;;;;;;;;5025790;28;20052;-68
2023/05/15 06:41:57;;;;;;;1.60;1.50;;;;;;;;;;5042014;28;20135;-67
2023/05/15 06:44:23;;;;;;;1.83;1.73;;;;;;;;;;5043841;28;20084;-67
2023/05/15 06:46:49;;;;;;;1.58;1.48;;;;;;;;;;5027557;28;20613;-67
2023/05/15 06:49:15;;;;;;;1.77;1.67;;;;;;;;;;5042731;28;20055;-67
2023/05/15 06:51:42;;;;;;;1.80;1.70;;;;;;;;;;5040716;28;20140;-67
2023/05/15 06:54:08;;;;;;;2.00;1.90;;;;;;;;;;5043495;28;20132;-67
2023/05/15 06:56:34;;;;;;;1.88;1.77;;;;;;;;;;5038871;28;20735;-67
2023/05/15 06:59:00;;;;;;;2.05;1.85;;;;;;;;;;5038716;28;20048;-67
2023/05/15 07:01:26;;;;;;;2.08;1.92;;;;;;;;;;5041883;28;21285;-67
2023/05/15 07:03:52;;;;;;;1.63;1.52;;;;;;;;;;5041696;28;20068;-67
2023/05/15 07:06:18;;;;;;;1.70;1.60;;;;;;;;;;5025791;28;20428;-67
2023/05/15 07:08:44;;;;;;;1.70;1.60;;;;;;;;;;5044324;28;20040;-67
2023/05/15 07:11:10;;;;;;;1.63;1.52;;;;;;;;;;5043438;28;20041;-67
2023/05/15 07:13:36;;;;;;;1.60;1.50;;;;;;;;;;5025429;28;20110;-67
2023/05/15 07:16:03;;;;;;;1.60;1.50;;;;;;;;;;5043100;28;20045;-67
2023/05/15 07:18:29;;;;;;;1.40;1.30;;;;;;;;;;5043019;28;20095;-67
2023/05/15 07:20:55;;;;;;;1.77;1.67;;;;;;;;;;5043386;28;20045;-67
2023/05/15 07:23:21;;;;;;;2.40;2.30;;;;;;;;;;5042684;28;20568;-67
2023/05/15 07:25:47;;;;;;;3.22;2.83;;;;;;;;;;5043289;28;20045;-65
2023/05/15 07:28:13;;;;;;;2.83;2.63;;;;;;;;;;5044787;28;20045;-64
2023/05/15 07:30:40;;;;;;;1.98;1.88;;;;;;;;;;5026467;28;20148;-65
2023/05/15 07:33:06;;;;;;;1.77;1.67;;;;;;;;;;5025818;28;20076;-71
2023/05/15 07:35:32;;;;;;;2.65;2.45;;;;;;;;;;5044516;28;20068;-66
2023/05/15 07:37:58;;;;;;;2.00;1.90;;;;;;;;;;5043954;28;20707;-67
2023/05/15 07:40:24;;;;;;;1.88;1.77;;;;;;;;;;5043454;28;20076;-69
2023/05/15 07:42:50;;;;;;;1.80;1.70;;;;;;;;;;5025776;28;20201;-67
2023/05/15 07:45:16;;;;;;;1.98;1.88;;;;;;;;;;5024941;28;20537;-67
2023/05/15 07:47:45;;;;;;;2.03;1.92;;;;;;;;;;5044095;28;20037;-67
2023/05/15 07:50:11;;;;;;;2.45;2.35;;;;;;;;;;5046243;28;20528;-66
2023/05/15 07:52:37;;;;;;;2.50;2.30;;;;;;;;;;5045428;28;20041;-67
2023/05/15 07:55:03;;;;;;;2.20;2.10;;;;;;;;;;5025417;28;20134;-66
2023/05/15 07:57:30;;;;;;;1.92;1.83;;;;;;;;;;5043016;28;20593;-67
2023/05/15 07:59:56;;;;;;;1.73;1.63;;;;;;;;;;5044535;28;20071;-67
2023/05/15 08:02:22;;;;;;;1.73;1.63;;;;;;;;;;5047125;28;20445;-68
2023/05/15 08:04:48;;;;;;;2.28;2.05;;;;;;;;;;5047188;28;20124;-68
2023/05/15 08:07:14;;;;;;;2.15;2.05;;;;;;;;;;5047329;28;20083;-68
2023/05/15 08:09:41;;;;;;;1.88;1.77;;;;;;;;;;5029417;28;20045;-68
2023/05/15 08:12:16;;;;;;;1.80;1.70;;;;;;;;;;5028257;28;20049;-68
2023/05/15 08:14:42;;;;;;;2.05;1.90;;;;;;;;;;5029028;28;20051;-68
2023/05/15 08:17:08;;;;;;;2.67;2.42;;;;;;;;;;5045976;28;20041;-68
2023/05/15 08:19:34;;;;;;;2.03;1.92;;;;;;;;;;5046144;28;20392;-68
2023/05/15 08:22:00;;;;;;;2.15;1.98;;;;;;;;;;5027226;28;20041;-68
2023/05/15 08:24:26;;;;;;;3.28;3.03;;;;;;;;;;5045989;28;20053;-68
2023/05/15 08:26:52;;;;;;;1.80;1.70;;;;;;;;;;5045523;28;20590;-68
2023/05/15 08:29:18;;;;;;;1.40;1.30;;;;;;;;;;5027136;28;20106;-68
2023/05/15 08:31:44;;;;;;;2.28;2.17;;;;;;;;;;5028637;28;20044;-68
2023/05/15 08:34:10;;;;;;;2.30;2.10;;;;;;;;;;5029671;28;20111;-68
2023/05/15 08:36:37;;;;;;;4.63;4.20;;;;;;;;;;5046369;28;20049;-68
2023/05/15 08:39:03;;;;;;;3.17;2.88;;;;;;;;;;5047081;28;20530;-68
2023/05/15 08:41:32;;;;;;;3.25;3.05;;;;;;;;;;5028612;28;20491;-67
2023/05/15 08:43:59;;;;;;;2.63;2.53;;;;;;;;;;5048361;28;20052;-68
2023/05/15 08:46:25;;;;;;;2.90;2.70;;;;;;;;;;5050988;28;20052;-68
2023/05/15 08:48:52;;;;;;;2.67;2.47;;;;;;;;;;5027807;28;20492;-68
2023/05/15 08:51:19;;;;;;;2.47;2.38;;;;;;;;;;5028589;28;20049;-68
2023/05/15 08:53:45;;;;;;;3.60;3.30;;;;;;;;;;5029004;28;20547;-69
2023/05/15 08:56:11;;;;;;;2.83;2.63;;;;;;;;;;5028619;28;20416;-68
2023/05/15 08:58:37;;;;;;;2.30;2.10;;;;;;;;;;5030889;28;20048;-68
2023/05/15 09:01:03;;;;;;;2.30;2.10;;;;;;;;;;5033323;28;20044;-68
2023/05/15 09:03:30;;;;;;;1.88;1.77;;;;;;;;;;5019112;28;20562;-68
2023/05/15 09:05:56;;;;;;;1.60;1.50;;;;;;;;;;5008773;28;20504;-68
2023/05/15 09:08:22;;;;;;;1.75;1.65;;;;;;;;;;5026908;28;20072;-68
2023/05/15 09:10:49;;;;;;;1.83;1.67;;;;;;;;;;5008579;28;20537;-68
2023/05/15 09:13:16;;;;;;;2.78;2.58;;;;;;;;;;5027787;28;20587;-69
2023/05/15 09:15:42;;;;;;;2.70;2.25;;;;;;;;;;5044207;28;20641;-68
2023/05/15 09:18:08;;;;;;;2.80;2.60;;;;;;;;;;5027545;28;20056;-68
2023/05/15 09:20:35;;;;;;;3.05;2.75;;;;;;;;;;5028299;28;20060;-68
2023/05/15 09:23:02;;;;;;;5.00;2.30;;;;;;;;;;5029472;28;20495;-68
2023/05/15 09:25:37;;;;;;;2.78;2.58;;;;;;;;;;5046600;28;20143;-69
2023/05/15 09:28:04;;;;;;;2.53;2.25;;;;;;;;;;5046341;28;20102;-69
2023/05/15 09:30:30;;;;;;;2.60;2.40;;;;;;;;;;5029281;28;20509;-69
2023/05/15 09:32:59;;;;;;;2.55;2.20;;;;;;;;;;5026332;28;20770;-69
2023/05/15 09:35:30;;;;;;;2.65;2.50;;;;;;;;;;5015089;28;20071;-69
2023/05/15 09:38:00;;;;;;;2.35;2.03;;;;;;;;;;5027981;28;20052;-69
2023/05/15 09:40:30;;;;;;;2.53;2.33;;;;;;;;;;5017670;28;20130;-68
2023/05/15 09:42:56;;;;;;;3.20;2.72;;;;;;;;;;5028489;28;20045;-69
2023/05/15 09:45:24;;;;;;;2.42;2.22;;;;;;;;;;5023382;28;20056;-69
2023/05/15 09:47:50;;;;;;;2.60;2.40;;;;;;;;;;5027393;28;20088;-69
2023/05/15 09:50:21;;;;;;;3.17;2.90;;;;;;;;;;5028268;28;20067;-69
2023/05/15 09:52:47;;;;;;;2.97;2.78;;;;;;;;;;5045416;28;20099;-68
2023/05/15 09:55:18;;;;;;;3.55;3.25;;;;;;;;;;5046815;28;20060;-69
2023/05/15 09:57:44;;;;;;;3.03;2.72;;;;;;;;;;5028971;28;20048;-68
2023/05/15 10:00:11;;;;;;;2.58;2.28;;;;;;;;;;5046037;28;20048;-68
2023/05/15 10:02:40;;;;;;;3.30;2.95;;;;;;;;;;5028218;28;20403;-68
2023/05/15 10:05:06;;;;;;;3.22;2.92;;;;;;;;;;5027865;28;20406;-68
2023/05/15 10:07:34;;;;;;;2.60;2.40;;;;;;;;;;5027820;28;20064;-69
2023/05/15 10:10:01;;;;;;;2.10;2.00;;;;;;;;;;5045780;28;20131;-69
2023/05/15 10:12:28;;;;;;;2.30;1.60;;;;;;;;;;5045965;28;20037;-69
2023/05/15 10:14:57;;;;;;;2.65;2.08;;;;;;;;;;5027212;28;20144;-69
2023/05/15 10:17:23;;;;;;;1.75;1.65;;;;;;;;;;5045764;28;20045;-68
2023/05/15 10:19:52;;;;;;;1.40;1.30;;;;;;;;;;5027384;28;20319;-69
2023/05/15 10:22:22;;;;;;;1.80;1.70;;;;;;;;;;5027566;28;20147;-69
2023/05/15 10:24:50;;;;;;;2.30;2.10;;;;;;;;;;5027587;28;20092;-68
2023/05/15 10:27:17;;;;;;;2.42;2.25;;;;;;;;;;5044367;28;20053;-69
2023/05/15 10:29:44;;;;;;;2.47;2.30;;;;;;;;;;5019014;28;20060;-68
2023/05/15 10:32:10;;;;;;;1.70;1.60;;;;;;;;;;5019921;28;20048;-69
2023/05/15 10:34:36;;;;;;;1.85;1.70;;;;;;;;;;5045112;28;20518;-69
2023/05/15 10:37:03;;;;;;;1.70;1.60;;;;;;;;;;5027177;28;20158;-69
2023/05/15 10:39:29;;;;;;;1.85;1.75;;;;;;;;;;5045643;28;20113;-69
2023/05/15 10:41:55;;;;;;;1.50;1.40;;;;;;;;;;5023060;28;20096;-69
2023/05/15 10:44:22;;;;;;;2.03;1.83;;;;;;;;;;5025498;28;20598;-69
2023/05/15 10:46:48;;;;;;;2.13;1.92;;;;;;;;;;5027852;28;20048;-69
2023/05/15 10:49:14;;;;;;;1.73;1.63;;;;;;;;;;5024996;28;20103;-69
2023/05/15 10:51:42;;;;;;;2.47;2.28;;;;;;;;;;5008108;28;20416;-68
2023/05/15 10:54:08;;;;;;;3.63;2.55;;;;;;;;;;5019094;28;20044;-69
2023/05/15 10:56:36;;;;;;;2.60;2.20;;;;;;;;;;5041166;28;20052;-69
2023/05/15 10:59:07;;;;;;;2.80;2.60;;;;;;;;;;5028765;28;20048;-69
2023/05/15 11:01:37;;;;;;;2.20;2.10;;;;;;;;;;5045703;28;20052;-69
2023/05/15 11:04:19;;;;;;;2.88;2.63;;;;;;;;;;5044200;28;20696;-69
2023/05/15 11:06:45;;;;;;;3.10;2.67;;;;;;;;;;5045929;28;20084;-69
2023/05/15 11:09:21;;;;;;;2.40;2.20;;;;;;;;;;5027020;28;20049;-69
2023/05/15 11:11:57;;;;;;;2.72;2.53;;;;;;;;;;5027185;28;20056;-68
2023/05/15 11:14:24;;;;;;;3.00;2.80;;;;;;;;;;5045091;28;20041;-69
2023/05/15 11:16:52;;;;;;;3.20;3.00;;;;;;;;;;5044221;28;20049;-69
2023/05/15 11:19:22;;;;;;;3.25;3.03;;;;;;;;;;5038004;28;20133;-69
2023/05/15 11:21:56;;;;;;;2.60;2.40;;;;;;;;;;5026965;28;20092;-69
2023/05/15 11:24:26;;;;;;;2.75;2.63;;;;;;;;;;5026799;28;20045;-69
2023/05/15 11:26:58;;;;;;;3.00;2.80;;;;;;;;;;5026523;28;20116;-68
2023/05/15 11:29:24;;;;;;;4.03;3.72;;;;;;;;;;5026921;28;20045;-69
2023/05/15 11:31:50;;;;;;;3.85;3.55;;;;;;;;;;5026408;28;20140;-69
2023/05/15 11:34:28;;;;;;;3.95;3.22;;;;;;;;;;5045526;28;20060;-69
2023/05/15 11:36:54;;;;;;;3.63;3.08;;;;;;;;;;5029804;28;20397;-69
2023/05/15 11:39:23;;;;;;;3.05;2.85;;;;;;;;;;5010739;28;20144;-69
2023/05/15 11:41:49;;;;;;;2.47;2.28;;;;;;;;;;5032554;28;20038;-69
2023/05/15 11:44:20;;;;;;;2.63;2.22;;;;;;;;;;5010202;28;20041;-69
2023/05/15 11:46:46;;;;;;;2.97;2.25;;;;;;;;;;5028467;28;20133;-69
2023/05/15 11:49:14;;;;;;;2.75;2.55;;;;;;;;;;5012934;28;20103;-69
2023/05/15 11:51:42;;;;;;;2.50;2.30;;;;;;;;;;5028701;28;20042;-69
2023/05/15 11:54:12;;;;;;;2.03;1.88;;;;;;;;;;5028253;28;20061;-68
2023/05/15 11:56:46;;;;;;;2.30;2.20;;;;;;;;;;5028518;28;20053;-69
2023/05/15 11:59:15;;;;;;;1.85;1.75;;;;;;;;;;5010824;28;20061;-69
2023/05/15 12:01:42;;;;;;;3.63;2.95;;;;;;;;;;5041391;28;20132;-69
2023/05/15 12:04:13;;;;;;;2.40;2.25;;;;;;;;;;5047971;28;20057;-69
2023/05/15 12:06:39;;;;;;;2.45;2.28;;;;;;;;;;5029948;28;20511;-68
2023/05/15 12:09:07;;;;;;;1.90;1.80;;;;;;;;;;5046928;28;20106;-69
2023/05/15 12:11:33;;;;;;;3.17;2.97;;;;;;;;;;5032577;28;20041;-68
2023/05/15 12:13:59;;;;;;;3.60;2.08;;;;;;;;;;5024151;28;20057;-69
2023/05/15 12:16:26;;;;;;;2.80;2.60;;;;;;;;;;5048165;28;20703;-69
2023/05/15 12:18:52;;;;;;;2.92;2.58;;;;;;;;;;5030198;28;20059;-69
2023/05/15 12:21:18;;;;;;;3.00;2.67;;;;;;;;;;5029454;28;20049;-68
2023/05/15 12:23:54;;;;;;;2.17;1.98;;;;;;;;;;5048362;28;20053;-68
2023/05/15 12:26:21;;;;;;;2.35;2.15;;;;;;;;;;5029932;28;20478;-68
2023/05/15 12:28:48;;;;;;;2.13;2.03;;;;;;;;;;5047711;28;20080;-69
2023/05/15 12:31:16;;;;;;;1.38;1.27;;;;;;;;;;5030006;28;20083;-69
2023/05/15 12:33:42;;;;;;;2.72;1.73;;;;;;;;;;5045981;28;20053;-68
2023/05/15 12:36:08;;;;;;;3.45;2.70;;;;;;;;;;5039760;28;20184;-69
2023/05/15 12:38:35;;;;;;;2.00;1.90;;;;;;;;;;5027530;28;20056;-69
2023/05/15 12:41:02;;;;;;;1.80;1.67;;;;;;;;;;5025948;28;20559;-68
2023/05/15 12:43:28;;;;;;;1.55;1.45;;;;;;;;;;5016003;28;20043;-68
2023/05/15 12:45:55;;;;;;;2.40;2.30;;;;;;;;;;5034238;28;20045;-68
2023/05/15 12:48:21;;;;;;;1.63;1.52;;;;;;;;;;5035398;28;20558;-68
2023/05/15 12:50:47;;;;;;;1.45;1.35;;;;;;;;;;5027993;28;20107;-68
2023/05/15 12:53:15;;;;;;;1.10;1.10;;;;;;;;;;5034378;28;20500;-68
2023/05/15 12:55:42;;;;;;;1.50;1.40;;;;;;;;;;5028442;28;20068;-68
2023/05/15 12:58:09;;;;;;;1.88;1.77;;;;;;;;;;5041409;28;20103;-68
2023/05/15 13:00:36;;;;;;;2.00;1.90;;;;;;;;;;5036867;28;20045;-68
2023/05/15 13:03:03;;;;;;;1.50;1.40;;;;;;;;;;5035534;28;20384;-68
2023/05/15 13:05:32;;;;;;;1.35;1.25;;;;;;;;;;5022820;28;20056;-68
2023/05/15 13:08:02;;;;;;;1.40;1.30;;;;;;;;;;5017188;28;20700;-67
2023/05/15 13:10:31;;;;;;;1.20;1.10;;;;;;;;;;5023304;28;20153;-68
2023/05/15 13:12:57;;;;;;;1.75;1.65;;;;;;;;;;5037850;28;20052;-68
2023/05/15 13:15:30;;;;;;;1.52;1.35;;;;;;;;;;5035714;28;20049;-68
2023/05/15 13:18:00;;;;;;;1.65;1.55;;;;;;;;;;5027588;28;20041;-68
2023/05/15 13:20:27;;;;;;;1.20;1.20;;;;;;;;;;5042164;28;20107;-68
2023/05/15 13:22:53;;;;;;;1.70;1.60;;;;;;;;;;5032587;28;20044;-69
2023/05/15 13:25:19;;;;;;;1.58;1.48;;;;;;;;;;5031759;28;20049;-68
2023/05/15 13:27:46;;;;;;;1.75;1.65;;;;;;;;;;5032485;28;20074;-68
2023/05/15 13:30:12;;;;;;;2.00;1.90;;;;;;;;;;5031289;28;20070;-68
2023/05/15 13:32:38;;;;;;;1.15;1.08;;;;;;;;;;5015235;28;20527;-68
2023/05/15 13:35:05;;;;;;;1.52;1.42;;;;;;;;;;5012755;28;20109;-69
2023/05/15 13:37:31;;;;;;;1.70;1.60;;;;;;;;;;5034746;28;20091;-82
2023/05/15 13:39:57;;;;;;;1.60;1.48;;;;;;;;;;5012637;28;20455;-69
2023/05/15 13:42:23;;;;;;;1.70;1.60;;;;;;;;;;5014493;28;20076;-68
2023/05/15 13:44:49;;;;;;;1.45;1.35;;;;;;;;;;5040471;28;20045;-68
2023/05/15 13:47:15;;;;;;;1.90;1.77;;;;;;;;;;5045776;28;20131;-68
2023/05/15 13:49:41;;;;;;;1.40;1.30;;;;;;;;;;5027085;28;20214;-68
2023/05/15 13:52:07;;;;;;;1.10;0.90;;;;;;;;;;5025933;28;20045;-68
2023/05/15 13:54:33;;;;;;;1.05;1.02;;;;;;;;;;5026896;28;20549;-68
2023/05/15 13:57:00;;;;;;;1.00;0.90;;;;;;;;;;5025552;28;20081;-68
2023/05/15 13:59:26;;;;;;;1.40;1.30;;;;;;;;;;5044137;28;20060;-68
2023/05/15 14:01:52;;;;;;;1.88;1.23;;;;;;;;;;5025633;28;20048;-68
2023/05/15 14:04:19;;;;;;;1.17;1.02;;;;;;;;;;5025568;28;20049;-68
2023/05/15 14:06:45;;;;;;;0.90;0.90;;;;;;;;;;5045027;28;20056;-68
2023/05/15 14:09:11;;;;;;;0.77;0.77;;;;;;;;;;5026559;28;20053;-68
2023/05/15 14:11:37;;;;;;;0.60;0.60;;;;;;;;;;5027394;28;20458;-68
2023/05/15 14:14:03;;;;;;;1.50;1.40;;;;;;;;;;5044238;28;20049;-68
2023/05/15 14:16:29;;;;;;;1.15;0.95;;;;;;;;;;5027183;28;20048;-68
2023/05/15 14:18:55;;;;;;;0.80;0.80;;;;;;;;;;5026659;28;20048;-68
2023/05/15 14:21:21;;;;;;;1.02;1.02;;;;;;;;;;5026381;28;20048;-68
2023/05/15 14:23:47;;;;;;;1.10;1.00;;;;;;;;;;5026793;28;20041;-68
2023/05/15 14:26:13;;;;;;;0.75;0.75;;;;;;;;;;5026801;28;20045;-69
2023/05/15 14:28:39;;;;;;;0.80;0.80;;;;;;;;;;5026907;28;20057;-68
2023/05/15 14:31:05;;;;;;;0.50;0.50;;;;;;;;;;5027823;28;20368;-68
2023/05/15 14:33:31;;;;;;;1.20;1.10;;;;;;;;;;5044275;28;20479;-68
2023/05/15 14:35:57;;;;;;;0.98;0.98;;;;;;;;;;5026396;28;20066;-67
2023/05/15 14:38:23;;;;;;;1.08;1.00;;;;;;;;;;5044659;28;20140;-68
2023/05/15 14:40:49;;;;;;;2.20;1.08;;;;;;;;;;5026078;28;20086;-68
2023/05/15 14:43:15;;;;;;;0.88;0.88;;;;;;;;;;5044576;28;20084;-68